Tonopah, Nevada Weather observations

Data are for observation ending at time listed.
 Day   Time    Ave.   Ave.  Ave.  Vector   Max.   Stn.    Total    Solar   Ave.  
  of    of     Air    Rel.  Wind   Wind    Wind   Baro.  Precip.   Rad.    Soil  
Year   Day     Temp.  Hum.  Speed  Dir.    Gust   Pres.                    Temp. 
2015   (PST)    F      %     mph   deg.    mph     mb.     in.     W/m2     F   
------------------------------------------------------------------------------
 241   14:20   85.8    11    8.0   191     23.1   812.4    0.00     654    86.3
 241   14:30   85.9    11    8.7   182     25.8   812.2    0.00     682    86.5
 241   14:40   86.4    10   10.4   148     25.1   812.0    0.00     648    86.6
 241   14:50   86.3    10    8.4   228     24.0   812.2    0.00     647    86.8
 241   15:00   86.1    11    5.8   240     14.9   812.1    0.00     546    86.9
 241   15:10   86.5    10    8.9   179     21.2   811.9    0.00     488    87.0
 241   15:20   86.1    11    9.3   193     22.2   811.9    0.00     464    87.1
 241   15:30   85.7    11    8.5   164     22.8   811.9    0.00     427    87.2
 241   15:40   85.8    11    9.4   165     23.3   811.8    0.00     406    87.3
 241   15:50   85.5    11   11.3   153     21.4   811.8    0.00     444    87.3
 241   16:00   85.7    11    8.2   161     21.5   811.8    0.00     452    87.3
 241   16:10   85.9    11   12.3   148     25.9   811.7    0.00     434    87.3
 241   16:20   85.3    12   10.0   157     20.9   811.6    0.00     308    87.3
 241   16:30   85.2    12   11.7   152     20.3   811.6    0.00     294    87.2
 241   16:40   84.6    12   11.9   164     21.5   811.6    0.00     248    87.2
 241   16:50   84.3    12   11.1   167     21.2   811.6    0.00     168    87.1
 241   17:00   83.7    12   11.8   162     20.0   811.6    0.00     140    87.1
 241   17:10   83.2    12   11.7   163     20.7   811.5    0.00     114    87.0
 241   17:20   82.7    12   12.3   158     22.3   811.4    0.00      97    86.9
 241   17:30   82.2    12   12.3   154     21.6   811.4    0.00      90    86.8
 241   17:40   81.9    12   11.2   146     18.3   811.3    0.00      74    86.7
 241   17:50   81.6    12   10.2   153     18.3   811.3    0.00      72    86.5
 241   18:00   81.2    13   10.4   158     19.9   811.3    0.00      41    86.4
 241   18:10   80.7    13   10.8   165     20.3   811.3    0.00      21    86.3
 241   18:20   80.2    13   10.3   157     20.6   811.3    0.00      11    86.1
 241   18:30   79.8    13   10.6   154     16.8   811.3    0.00       4    86.0
 241   18:40   79.5    13   10.0   156     18.9   811.3    0.00       3    85.8
 241   18:50   79.1    13    8.6   161     15.3   811.4    0.00       0    85.7
 241   19:00   78.9    13   11.0   163     21.9   811.4    0.00       0    85.5
 241   19:10   78.6    13   10.9   160     17.8   811.5    0.00       0    85.4
 241   19:20   78.2    13    9.7   163     20.5   811.5    0.00       0    85.2
 241   19:30   78.4    13   10.2   175     18.5   811.6    0.00       0    85.0
 241   19:40   77.9    13    9.3   157     21.1   811.8    0.00       0    84.9
 241   19:50   77.5    13    9.7   150     20.5   812.0    0.00       0    84.7
 241   20:00   77.4    13    8.5   171     17.3   812.2    0.00       0    84.6
 241   20:10   77.7    13    5.9     1     12.7   812.5    0.00       0    84.4
 241   20:20   77.2    13    6.3   264     14.5   812.7    0.00       0    84.3
 241   20:30   76.1    14    5.4   286      9.6   812.9    0.00       0    84.1
 241   20:40   75.2    15    5.8   305      9.3   812.9    0.00       0    83.9
 241   20:50   74.0    16    4.3   270      7.4   813.0    0.00       0    83.8
 241   21:00   73.1    18    4.5   292      7.4   813.0    0.00       0    83.6
 241   21:10   73.0    19    4.8   271     10.8   813.1    0.00       0    83.5
 241   21:20   72.8    21    5.9   275     10.2   813.1    0.00       0    83.3
 241   21:30   72.2    22    4.1   281      8.8   813.0    0.00       0    83.2
 241   21:40   71.4    24    4.7   282      8.3   813.0    0.00       0    83.0
 241   21:50   70.8    26    4.2   275      6.4   813.1    0.00       0    82.9
 241   22:00   70.3    27    2.9   283      4.8   813.1    0.00       0    82.7
 241   22:10   70.0    29    3.6   292      6.1   813.2    0.00       0    82.6
 241   22:20   69.5    29    3.3   300      4.7   813.1    0.00       0    82.5
 241   22:30   69.3    30    4.8   271      9.3   813.1    0.00       0    82.3
 241   22:40   69.6    30    7.0   260     10.7   813.1    0.00       0    82.1
 241   22:50   69.7    30    7.3   264     11.8   813.1    0.00       0    82.0
 241   23:00   69.4    31    6.5   277     10.1   813.1    0.00       0    81.9
 241   23:10   69.2    31    6.8   277     10.6   813.2    0.00       0    81.7
 241   23:20   69.1    32    6.7   281     10.2   813.2    0.00       0    81.6
 241   23:30   69.0    32    7.1   284     11.3   813.2    0.00       0    81.5
 241   23:40   68.9    32    6.8   285     11.2   813.2    0.00       0    81.3
 241   23:50   68.8    32    6.4   289     10.1   813.2    0.00       0    81.2
 242    0:00   68.1    33    5.8   291     10.4   813.2    0.00       0    81.1
 242    0:10   68.1    33    6.0   282     10.5   813.2    0.00       0    80.9
 242    0:20   67.8    33    4.5   290      7.5   813.1    0.00       0    80.8
 242    0:30   67.0    34    3.1   298      4.5   813.0    0.00       0    80.7
 242    0:40   66.9    34    3.9   279      6.1   813.0    0.00       0    80.6
 242    0:50   66.8    34    3.7   283      5.8   813.0    0.00       0    80.5
 242    1:00   67.0    34    4.4   278      6.1   812.9    0.00       0    80.4
 242    1:10   66.9    34    3.5   286      6.4   812.8    0.00       0    80.2
 242    1:20   66.1    35    3.3   300      4.8   812.8    0.00       0    80.1
 242    1:30   65.3    36    3.6   300      5.5   812.8    0.00       0    80.0
 242    1:40   64.9    37    3.5   304      4.7   812.8    0.00       0    79.9
 242    1:50   65.2    37    4.2   279      7.2   812.9    0.00       0    79.8
 242    2:00   65.9    36    5.3   276      8.0   812.9    0.00       0    79.6
 242    2:10   66.0    36    5.7   271      9.9   812.9    0.00       0    79.5
 242    2:20   65.9    36    6.0   275     10.6   813.0    0.00       0    79.4
 242    2:30   65.5    37    5.3   274      8.2   812.9    0.00       0    79.3
 242    2:40   65.2    38    4.9   272      8.2   812.9    0.00       0    79.2
 242    2:50   64.5    38    3.4   278      5.0   812.9    0.00       0    79.1
 242    3:00   63.7    40    2.1   291      3.3   812.9    0.00       0    79.0
 242    3:10   63.6    40    3.1   273      7.4   812.8    0.00       0    78.8
 242    3:20   65.5    37    5.7   246     11.9   812.8    0.00       0    78.7
 242    3:30   65.9    36    5.9   282     11.9   812.9    0.00       0    78.6
 242    3:40   65.2    37    5.2   282      8.3   812.9    0.00       0    78.5
 242    3:50   65.0    38    5.3   283      8.9   812.9    0.00       0    78.4
 242    4:00   64.5    38    4.8   275      8.0   812.9    0.00       0    78.3
 242    4:10   63.8    40    4.0   281      6.1   812.9    0.00       0    78.2
 242    4:20   63.3    40    3.6   275      5.6   813.0    0.00       0    78.0
 242    4:30   63.2    41    4.4   255      6.6   812.9    0.00       0    77.9
 242    4:40   62.9    41    4.6   253      7.2   813.0    0.00       0    77.8
 242    4:50   63.2    40    5.3   268      9.1   813.0    0.00       0    77.7
 242    5:00   62.7    41    5.2   271      8.3   813.0    0.00       0    77.6
 242    5:10   62.5    42    5.8   276      8.9   813.1    0.00       1    77.5
 242    5:20   62.2    42    5.8   267      9.9   813.1    0.00       4    77.4
 242    5:30   62.0    42    5.2   262      7.7   813.2    0.00      14    77.3
 242    5:40   62.0    42    4.7   269      7.9   813.4    0.00      30    77.1
 242    5:50   62.2    42    4.5   276      8.3   813.5    0.00      53    77.0
 242    6:00   62.7    41    4.2   294      6.6   813.6    0.00      69    76.9
 242    6:10   62.9    41    4.6   271      7.2   813.7    0.00      97    76.8
 242    6:20   63.5    40    5.2   271      7.8   813.7    0.00     149    76.7
 242    6:30   64.5    39    5.2   274      7.2   813.7    0.00     227    76.7
 242    6:40   65.4    38    5.3   272      7.5   813.8    0.00     266    76.6
 242    6:50   66.1    37    5.1   290      7.8   813.8    0.00     306    76.5
 242    7:00   67.5    34    4.5   296      7.8   813.9    0.00     349    76.5
 242    7:10   67.8    33    5.6   297      9.0   813.9    0.00     383    76.5
 242    7:20   67.4    34    6.2   286      8.7   813.9    0.00     358    76.5
 242    7:30   67.0    35    4.9   286      7.8   813.9    0.00     326    76.5
 242    7:40   67.3    34    6.3   288      9.0   814.0    0.00     394    76.6
 242    7:50   67.2    34    6.1   281      9.1   814.0    0.00     485    76.6
 242    8:00   68.0    33    6.8   290      9.9   814.0    0.00     588    76.7
 242    8:10   69.4    32    6.0   299      9.9   814.0    0.00     681    76.9
 242    8:20   69.9    30    8.0   289     13.3   814.1    0.00     590    77.0
 242    8:30   70.0    30    7.2   288     11.8   814.2    0.00     618    77.1
 242    8:40   70.1    30    7.3   289     10.9   814.2    0.00     590    77.3
 242    8:50   70.0    30    6.8   302     11.2   814.2    0.00     426    77.4
 242    9:00   69.7    30    6.5   295     10.1   814.3    0.00     404    77.6
 242    9:10   70.1    30    7.1   288     12.6   814.3    0.00     559    77.8
 242    9:20   70.3    29    7.6   291     12.7   814.3    0.00     517    78.0
 242    9:30   70.9    28    7.5   297     12.5   814.2    0.00     699    78.2
 242    9:40   71.9    27    7.6   294     12.1   814.3    0.00     669    78.4
 242    9:50   71.9    25    7.6   297     11.8   814.4    0.00     719    78.6
 242   10:00   72.4    25    8.6   283     15.1   814.4    0.00     731    78.7
 242   10:10   72.4    25    8.4   295     14.7   814.4    0.00     684    79.0
 242   10:20   73.2    24    8.0   301     15.1   814.4    0.00     744    79.1
 242   10:30   73.1    24    8.1   298     14.5   814.4    0.00     665    79.3
 242   10:40   73.5    23    6.9   300     13.4   814.3    0.00     575    79.5
 242   10:50   74.1    23    7.3   276     12.1   814.3    0.00     833    79.7
 242   11:00   74.1    23    6.7   317     13.5   814.2    0.00     718    80.0
 242   11:10   74.4    23    5.6   343     13.8   814.1    0.00     899    80.2
 242   11:20   75.9    22    5.2   263     11.7   814.0    0.00     944    80.4
 242   11:30   76.7    21    6.0   300     10.5   814.0    0.00     953    80.7
 242   11:40   76.4    21    6.8   333     12.1   814.0    0.00     963    80.9
 242   11:50   76.8    21    5.4   322     13.0   813.9    0.00     959    81.2
 242   12:00   77.7    20    4.8   241      9.1   813.8    0.00     960    81.5
 242   12:10   77.4    20    4.3   282      9.0   813.8    0.00     957    81.9
 242   12:20   77.5    20    8.4   305     14.7   813.8    0.00     951    82.3
 242   12:30   77.9    19    6.2   321     12.3   813.7    0.00     947    82.6
 242   12:40   78.2    18    3.3   304      8.5   813.6    0.00     945    83.0
 242   12:50   78.9    18    9.0   309     13.5   813.5    0.00     933    83.4
 242   13:00   78.5    18    6.8   295     12.1   813.6    0.00     925    83.7
 242   13:10   79.4    18    3.4   238      6.7   813.5    0.00     909    84.1
 242   13:20   79.8    17    3.9   290     10.4   813.3    0.00     897    84.5
 242   13:30   79.6    17    7.0   274     15.4   813.3    0.00     880    84.7
 242   13:40   79.4    17    3.3   300     10.4   813.1    0.00     855    85.0
 242   13:50   80.7    16    2.8   346      8.3   813.0    0.00     833    85.4
 242   14:00   80.5    16    6.5   308     14.2   812.9    0.00     818    85.7
 242   14:10   79.8    16    5.5   321     10.4   812.8    0.00     790    86.0

Return to Tonopah, Nevada graphs page.


Western Regional Climate Center,wrcc@dri.edu